University of Texas, Texas
Current Conditions -  °F | °C
As of 8:12 AM on Friday 28 Nov 2014 (Local Time) from KATT Reporting Station
Broken Clouds Broken Clouds  
Wind Chill: 50°   Ceiling: 2000
Heat Index: 50°   Visibility: 10mi
Dew Point: 43°   Wind: 0mph
Humidity: 77%   Direction: NA
Pressure: 30.32"   Gusts: NA
Location:  30.2843°N, 97.7442°W
Report Text: KATT 281412Z AUTO 00000KT 10SM BKN020 10/06 A3032 RMK AO2 T01000061
Loading
Personal Weather Stations






























Interactive Weather Map New forecast layout! Learn more

10-Day Weather Forecast

Advertisements
Track Severe Weather on mobile